createdAt,value
2022-08-26T00:01:42.066Z,25.20
2022-08-26T00:04:12.745Z,25.20
2022-08-26T00:06:42.726Z,25.10
2022-08-26T00:09:15.939Z,25.10
2022-08-26T00:11:44.781Z,25.10
2022-08-26T00:14:13.879Z,25.10
2022-08-26T00:16:47.577Z,25.00
2022-08-26T00:19:20.448Z,25.00
2022-08-26T00:21:49.722Z,25.00
2022-08-26T00:24:18.129Z,24.90
2022-08-26T00:26:45.129Z,24.90
2022-08-26T00:29:12.381Z,24.90
2022-08-26T00:31:40.140Z,24.80
2022-08-26T00:34:09.529Z,24.80
2022-08-26T00:36:36.931Z,24.80
2022-08-26T00:39:06.971Z,24.80
2022-08-26T00:41:34.893Z,24.80
2022-08-26T00:44:01.733Z,24.70
2022-08-26T00:46:36.913Z,24.70
2022-08-26T00:49:11.920Z,24.70
2022-08-26T00:51:45.649Z,24.70
2022-08-26T00:54:13.056Z,24.60
2022-08-26T00:56:56.049Z,24.60
2022-08-26T00:59:24.209Z,24.60
2022-08-26T01:01:51.503Z,24.60
2022-08-26T01:04:22.630Z,24.60
2022-08-26T01:06:52.695Z,24.60
2022-08-26T01:09:20.887Z,24.50
2022-08-26T01:11:51.280Z,24.50
2022-08-26T01:14:20.712Z,24.50
2022-08-26T01:16:48.362Z,24.40
2022-08-26T01:19:29.504Z,24.40
2022-08-26T01:22:05.506Z,24.40
2022-08-26T01:24:32.463Z,24.40
2022-08-26T01:27:04.495Z,24.30
2022-08-26T01:29:33.906Z,24.30
2022-08-26T01:32:00.932Z,24.30
2022-08-26T01:34:31.198Z,24.30
2022-08-26T01:37:22.881Z,24.30
2022-08-26T01:39:54.748Z,24.30
2022-08-26T01:42:24.360Z,24.20
2022-08-26T01:45:00.875Z,24.20
2022-08-26T01:47:31.464Z,24.20
2022-08-26T01:50:01.554Z,24.20
2022-08-26T01:52:31.560Z,24.20
2022-08-26T01:54:59.914Z,24.20
2022-08-26T01:57:27.351Z,24.20
2022-08-26T01:59:58.376Z,24.20
2022-08-26T02:02:26.318Z,24.10
2022-08-26T02:04:58.397Z,24.10
2022-08-26T02:07:26.674Z,24.10
2022-08-26T02:09:54.299Z,24.10
2022-08-26T02:12:21.262Z,24.10
2022-08-26T02:14:53.642Z,24.00
2022-08-26T02:17:24.665Z,24.00
2022-08-26T02:19:52.026Z,24.00
2022-08-26T02:22:24.707Z,24.00
2022-08-26T02:24:51.534Z,24.00
2022-08-26T02:27:32.457Z,24.00
2022-08-26T02:30:06.142Z,24.00
2022-08-26T02:32:33.166Z,23.90
2022-08-26T02:35:01.617Z,23.90
2022-08-26T02:37:31.179Z,23.90
2022-08-26T02:39:58.476Z,23.90
2022-08-26T02:42:25.278Z,23.90
2022-08-26T02:44:52.148Z,23.90
2022-08-26T02:47:19.019Z,23.80
2022-08-26T02:49:47.400Z,23.80
2022-08-26T02:52:14.581Z,23.80
2022-08-26T02:54:41.419Z,23.70
2022-08-26T02:57:08.578Z,23.70
2022-08-26T02:59:36.016Z,23.70
2022-08-26T03:02:03.219Z,23.70
2022-08-26T03:04:31.085Z,23.70
2022-08-26T03:07:00.215Z,23.60
2022-08-26T03:09:27.939Z,23.60
2022-08-26T03:11:55.577Z,23.60
2022-08-26T03:14:24.059Z,23.60
2022-08-26T03:16:54.364Z,23.60
2022-08-26T03:19:25.672Z,23.50
2022-08-26T03:21:57.741Z,23.50
2022-08-26T03:24:25.690Z,23.50
2022-08-26T03:26:53.041Z,23.50
2022-08-26T03:29:39.914Z,23.50
2022-08-26T03:32:06.933Z,23.40
2022-08-26T03:34:33.942Z,23.40
2022-08-26T03:37:01.186Z,23.40
2022-08-26T03:39:28.626Z,23.40
2022-08-26T03:41:58.949Z,23.40
2022-08-26T03:44:26.614Z,23.40
2022-08-26T03:46:54.541Z,23.30
2022-08-26T03:49:22.225Z,23.30
2022-08-26T03:51:49.197Z,23.30
2022-08-26T03:54:17.950Z,23.30
2022-08-26T03:56:46.543Z,23.30
2022-08-26T03:59:13.624Z,23.20
2022-08-26T04:01:40.771Z,23.20
2022-08-26T04:04:07.740Z,23.20
2022-08-26T04:06:37.942Z,23.10
2022-08-26T04:09:08.226Z,23.10
2022-08-26T04:11:38.237Z,23.10
2022-08-26T04:14:10.340Z,23.10
2022-08-26T04:16:37.282Z,23.10
2022-08-26T04:19:04.495Z,23.10
2022-08-26T04:21:31.411Z,23.00
2022-08-26T04:23:58.429Z,23.00
2022-08-26T04:26:25.764Z,23.00
2022-08-26T04:28:55.225Z,23.00
2022-08-26T04:31:22.571Z,23.00
2022-08-26T04:33:50.243Z,22.90
2022-08-26T04:36:20.267Z,22.90
2022-08-26T04:38:47.513Z,22.90
2022-08-26T04:41:15.372Z,22.90
2022-08-26T04:43:44.673Z,22.90
2022-08-26T04:46:13.618Z,22.90
2022-08-26T04:48:41.321Z,22.90
2022-08-26T04:51:09.785Z,22.80
2022-08-26T04:53:37.745Z,22.90
2022-08-26T04:56:05.124Z,22.80
2022-08-26T04:58:32.405Z,22.80
2022-08-26T05:00:59.620Z,22.90
2022-08-26T05:03:30.470Z,22.80
2022-08-26T05:05:58.349Z,22.80
2022-08-26T05:08:25.346Z,22.80
2022-08-26T05:10:55.956Z,22.80
2022-08-26T05:13:25.092Z,22.80
2022-08-26T05:15:52.667Z,22.80
2022-08-26T05:18:22.791Z,22.80
2022-08-26T05:20:53.998Z,22.90
2022-08-26T05:23:23.120Z,22.80
2022-08-26T05:25:55.770Z,22.90
2022-08-26T05:28:26.385Z,22.80
2022-08-26T05:30:53.266Z,22.80
2022-08-26T05:33:20.218Z,22.90
2022-08-26T05:35:48.152Z,22.90
2022-08-26T05:38:19.202Z,22.80
2022-08-26T05:40:49.135Z,22.80
2022-08-26T05:43:21.540Z,22.90
2022-08-26T05:45:50.531Z,22.80
2022-08-26T05:48:22.881Z,22.80
2022-08-26T05:50:53.080Z,22.80
2022-08-26T05:53:21.665Z,22.70
2022-08-26T05:55:52.635Z,22.70
2022-08-26T05:58:21.858Z,22.70
2022-08-26T06:01:14.885Z,22.70
2022-08-26T06:03:48.911Z,22.70
2022-08-26T06:06:27.580Z,22.70
2022-08-26T06:08:59.069Z,22.70
2022-08-26T06:11:28.444Z,22.70
2022-08-26T06:14:02.702Z,22.70
2022-08-26T06:16:34.890Z,22.70
2022-08-26T06:19:10.415Z,22.70
2022-08-26T06:21:39.335Z,22.70
2022-08-26T06:24:27.703Z,22.70
2022-08-26T06:26:57.223Z,22.70
2022-08-26T06:29:25.990Z,22.70
2022-08-26T06:31:54.458Z,22.60
2022-08-26T06:34:29.696Z,22.60
2022-08-26T06:36:58.711Z,22.60
2022-08-26T06:39:25.538Z,22.60
2022-08-26T06:41:52.380Z,22.60
2022-08-26T06:44:20.209Z,22.70
2022-08-26T06:46:50.250Z,22.70
2022-08-26T06:49:17.782Z,22.70
2022-08-26T06:51:44.829Z,22.80
2022-08-26T06:54:11.718Z,22.80
2022-08-26T06:56:43.471Z,22.80
2022-08-26T06:59:11.806Z,22.90
2022-08-26T07:01:44.860Z,22.90
2022-08-26T07:04:15.630Z,22.90
2022-08-26T07:06:50.075Z,23.00
2022-08-26T07:09:21.489Z,23.00
2022-08-26T07:11:48.466Z,23.00
2022-08-26T07:14:16.736Z,23.00
2022-08-26T07:16:47.546Z,23.10
2022-08-26T07:19:14.417Z,23.10
2022-08-26T07:21:44.134Z,23.10
2022-08-26T07:24:11.914Z,23.20
2022-08-26T07:26:42.844Z,23.20
2022-08-26T07:29:12.390Z,23.20
2022-08-26T07:31:42.897Z,23.30
2022-08-26T07:34:11.243Z,23.30
2022-08-26T07:36:37.979Z,23.40
2022-08-26T07:39:05.684Z,23.40
2022-08-26T07:41:32.487Z,23.40
2022-08-26T07:43:59.372Z,23.50
2022-08-26T07:46:27.479Z,23.50
2022-08-26T07:48:57.537Z,23.60
2022-08-26T07:51:24.979Z,23.60
2022-08-26T07:53:53.049Z,23.70
2022-08-26T07:56:23.150Z,23.70
2022-08-26T07:58:52.852Z,23.70
2022-08-26T08:01:21.593Z,23.70
2022-08-26T08:03:51.535Z,23.80
2022-08-26T08:06:20.228Z,23.80
2022-08-26T08:08:47.412Z,23.80
2022-08-26T08:11:14.667Z,23.80
2022-08-26T08:13:41.412Z,23.90
2022-08-26T08:16:12.501Z,23.90
2022-08-26T08:18:40.424Z,23.90
2022-08-26T08:21:24.008Z,23.90
2022-08-26T08:23:53.107Z,24.00
2022-08-26T08:26:20.071Z,24.00
2022-08-26T08:28:47.909Z,24.10
2022-08-26T08:31:55.986Z,24.10
2022-08-26T08:34:18.194Z,24.10
2022-08-26T08:36:46.287Z,24.10
2022-08-26T08:39:13.553Z,24.20
2022-08-26T08:42:23.697Z,24.20
2022-08-26T08:44:54.236Z,24.20
2022-08-26T08:47:37.753Z,24.20
2022-08-26T08:50:24.891Z,24.20
2022-08-26T08:53:09.009Z,24.20
2022-08-26T08:56:05.006Z,24.30
2022-08-26T08:58:52.202Z,24.30
2022-08-26T09:01:44.692Z,24.30
2022-08-26T09:04:35.993Z,24.50
2022-08-26T09:07:05.105Z,24.50
2022-08-26T09:09:40.547Z,24.60
2022-08-26T09:12:14.562Z,24.70
2022-08-26T09:14:45.060Z,24.80
2022-08-26T09:17:31.294Z,24.80
2022-08-26T09:20:13.054Z,24.90
2022-08-26T09:22:40.364Z,24.90
2022-08-26T09:25:13.106Z,25.00
2022-08-26T09:27:46.148Z,25.10
2022-08-26T09:30:35.298Z,25.20
2022-08-26T09:33:10.828Z,25.30
2022-08-26T09:35:40.299Z,25.50
2022-08-26T09:38:28.225Z,25.60
2022-08-26T09:40:59.565Z,25.80
2022-08-26T09:43:28.477Z,25.90
2022-08-26T09:46:14.999Z,26.10
2022-08-26T09:48:42.957Z,26.20
2022-08-26T09:51:24.706Z,26.40
2022-08-26T09:53:54.844Z,26.50
2022-08-26T09:56:21.522Z,26.60
2022-08-26T09:58:50.316Z,26.80
2022-08-26T10:01:35.408Z,26.80
2022-08-26T10:04:07.324Z,26.90
2022-08-26T10:06:40.467Z,27.00
2022-08-26T10:09:13.840Z,27.10
2022-08-26T10:11:48.220Z,27.20
2022-08-26T10:14:29.849Z,27.30
2022-08-26T10:17:32.786Z,27.40
2022-08-26T10:20:23.315Z,27.60
2022-08-26T10:23:06.039Z,27.70
2022-08-26T10:25:44.897Z,27.80
2022-08-26T10:28:23.194Z,28.00
2022-08-26T10:31:20.087Z,28.10
2022-08-26T10:33:50.029Z,28.20
2022-08-26T10:36:52.386Z,28.40
2022-08-26T10:39:31.380Z,28.50
2022-08-26T10:42:04.717Z,28.70
2022-08-26T10:44:35.163Z,28.80
2022-08-26T10:47:09.055Z,28.90
2022-08-26T10:49:37.780Z,29.10
2022-08-26T10:52:12.059Z,29.30
2022-08-26T10:55:01.864Z,29.40
2022-08-26T10:57:48.070Z,29.60
2022-08-26T11:00:44.158Z,29.80
2022-08-26T11:03:54.075Z,30.00
2022-08-26T11:06:28.153Z,30.30
2022-08-26T11:08:57.449Z,30.50
2022-08-26T11:11:46.891Z,30.50
2022-08-26T11:14:29.176Z,30.60
2022-08-26T11:16:58.625Z,30.70
2022-08-26T11:19:59.339Z,30.70
2022-08-26T11:22:30.992Z,30.80
2022-08-26T11:24:57.785Z,30.90
2022-08-26T11:27:36.720Z,31.00
2022-08-26T11:30:06.724Z,31.10
2022-08-26T11:32:34.432Z,31.20
2022-08-26T11:35:24.566Z,31.50
2022-08-26T11:37:58.840Z,31.70
2022-08-26T11:40:41.657Z,31.90
2022-08-26T11:43:17.634Z,32.00
2022-08-26T11:46:07.406Z,32.10
2022-08-26T11:48:37.714Z,32.20
2022-08-26T11:51:34.922Z,32.40
2022-08-26T11:54:10.990Z,32.50
2022-08-26T11:56:40.764Z,32.60
2022-08-26T11:59:15.536Z,32.70
2022-08-26T12:01:45.533Z,32.80
2022-08-26T12:04:22.117Z,32.90
2022-08-26T12:06:51.627Z,32.90
2022-08-26T12:09:26.517Z,33.10
2022-08-26T12:12:08.625Z,33.20
2022-08-26T12:14:39.718Z,33.30
2022-08-26T12:17:25.815Z,33.40
2022-08-26T12:19:52.566Z,33.50
2022-08-26T12:22:29.777Z,33.60
2022-08-26T12:25:03.344Z,33.60
2022-08-26T12:27:33.188Z,33.70
2022-08-26T12:30:02.828Z,33.70
2022-08-26T12:32:31.399Z,33.80
2022-08-26T12:37:37.354Z,34.00
2022-08-26T12:40:35.483Z,34.10
2022-08-26T12:43:04.998Z,34.10
2022-08-26T12:45:33.276Z,34.20
2022-08-26T12:48:13.470Z,34.30
2022-08-26T12:50:47.593Z,34.40
2022-08-26T12:53:24.843Z,34.60
2022-08-26T12:55:54.411Z,34.70
2022-08-26T12:58:34.813Z,34.70
2022-08-26T13:01:04.816Z,34.70
2022-08-26T13:03:34.712Z,34.80
2022-08-26T13:06:19.830Z,34.80
2022-08-26T13:08:47.545Z,34.90
2022-08-26T13:11:20.897Z,34.90
2022-08-26T13:13:51.635Z,35.00
2022-08-26T13:16:20.349Z,34.90
2022-08-26T13:18:54.495Z,35.10
2022-08-26T13:21:31.923Z,35.30
2022-08-26T13:24:16.877Z,35.10
2022-08-26T13:26:45.994Z,34.90
2022-08-26T13:29:13.645Z,34.90
2022-08-26T13:31:42.691Z,34.90
2022-08-26T13:34:15.083Z,34.80
2022-08-26T13:36:44.496Z,34.40
2022-08-26T13:39:12.243Z,34.10
2022-08-26T13:41:39.127Z,33.80
2022-08-26T13:44:06.377Z,33.60
2022-08-26T13:46:33.477Z,33.50
2022-08-26T13:49:00.323Z,33.60
2022-08-26T13:51:27.719Z,33.50
2022-08-26T13:53:54.842Z,33.40
2022-08-26T13:56:22.822Z,33.40
2022-08-26T13:58:49.936Z,33.40
2022-08-26T14:01:17.684Z,33.40
2022-08-26T14:03:44.753Z,33.20
2022-08-26T14:06:11.847Z,33.10
2022-08-26T14:08:39.870Z,32.90
2022-08-26T14:11:07.811Z,32.70
2022-08-26T14:13:35.369Z,32.50
2022-08-26T14:16:04.717Z,32.40
2022-08-26T14:18:41.887Z,32.20
2022-08-26T14:21:12.643Z,32.10
2022-08-26T14:23:40.234Z,32.00
2022-08-26T14:26:14.309Z,31.90
2022-08-26T14:28:59.698Z,31.80
2022-08-26T14:31:29.250Z,31.60
2022-08-26T14:34:03.348Z,31.50
2022-08-26T14:36:33.426Z,31.40
2022-08-26T14:39:09.146Z,31.30
2022-08-26T14:41:42.740Z,31.30
2022-08-26T14:44:13.658Z,31.20
2022-08-26T14:46:50.831Z,31.10
2022-08-26T14:49:19.306Z,31.00
2022-08-26T14:51:46.597Z,31.00
2022-08-26T14:54:17.780Z,30.90
2022-08-26T14:56:58.593Z,30.90
2022-08-26T14:59:37.544Z,30.80
2022-08-26T15:02:06.034Z,30.80
2022-08-26T15:04:33.281Z,30.70
2022-08-26T15:07:00.909Z,30.70
2022-08-26T15:09:29.304Z,30.60
2022-08-26T15:11:56.507Z,30.60
2022-08-26T15:14:24.045Z,30.50
2022-08-26T15:16:53.931Z,30.50
2022-08-26T15:19:21.463Z,30.40
2022-08-26T15:21:49.089Z,30.40
2022-08-26T15:24:19.673Z,30.30
2022-08-26T15:26:47.353Z,30.30
2022-08-26T15:29:14.541Z,30.30
2022-08-26T15:31:41.750Z,30.20
2022-08-26T15:34:13.328Z,30.20
2022-08-26T15:36:44.745Z,30.20
2022-08-26T15:39:12.147Z,30.10
2022-08-26T15:41:38.894Z,30.10
2022-08-26T15:44:07.481Z,30.10
2022-08-26T15:46:35.634Z,30.10
2022-08-26T15:49:04.503Z,30.00
2022-08-26T15:51:45.554Z,30.00
2022-08-26T15:54:13.362Z,29.90
2022-08-26T15:56:40.175Z,29.90
2022-08-26T15:59:11.634Z,29.70
2022-08-26T16:01:39.574Z,29.50
2022-08-26T16:04:06.780Z,29.30
2022-08-26T16:06:36.240Z,29.10
2022-08-26T16:09:04.451Z,28.90
2022-08-26T16:11:31.237Z,28.80
2022-08-26T16:13:58.422Z,28.70
2022-08-26T16:16:25.296Z,28.60
2022-08-26T16:18:53.427Z,28.40
2022-08-26T16:21:23.237Z,28.20
2022-08-26T16:23:50.879Z,28.00
2022-08-26T16:26:24.270Z,27.70
2022-08-26T16:28:51.460Z,27.50
2022-08-26T16:31:18.690Z,27.30
2022-08-26T16:33:46.212Z,27.20
2022-08-26T16:36:14.048Z,27.10
2022-08-26T16:38:41.479Z,27.00
2022-08-26T16:41:08.986Z,26.80
2022-08-26T16:43:37.429Z,26.60
2022-08-26T16:46:06.951Z,26.50
2022-08-26T16:48:34.855Z,26.50
2022-08-26T16:51:01.710Z,26.40
2022-08-26T16:53:28.601Z,26.30
2022-08-26T16:55:55.428Z,26.20
2022-08-26T16:58:22.476Z,26.30
2022-08-26T17:00:49.713Z,26.20
2022-08-26T17:03:17.108Z,26.20
2022-08-26T17:05:44.510Z,26.10
2022-08-26T17:08:13.771Z,25.90
2022-08-26T17:13:10.084Z,25.70
2022-08-26T17:15:37.062Z,25.70
2022-08-26T17:18:04.137Z,25.60
2022-08-26T17:20:31.071Z,25.60
2022-08-26T17:22:58.993Z,25.50
2022-08-26T17:25:31.676Z,25.50
2022-08-26T17:27:59.224Z,25.50
2022-08-26T17:30:26.292Z,25.50
2022-08-26T17:32:53.874Z,25.50
2022-08-26T17:35:21.979Z,25.50
2022-08-26T17:37:48.786Z,25.60
2022-08-26T17:40:19.345Z,25.60
2022-08-26T17:42:46.779Z,25.70
2022-08-26T17:45:14.658Z,25.70
2022-08-26T17:47:42.377Z,25.60
2022-08-26T17:50:12.893Z,25.60
2022-08-26T17:52:40.814Z,25.60
2022-08-26T17:55:09.915Z,25.60
2022-08-26T17:57:40.786Z,25.60
2022-08-26T18:00:14.907Z,25.60
2022-08-26T18:02:42.324Z,25.60
2022-08-26T18:05:11.518Z,25.50
2022-08-26T18:07:43.666Z,25.50
2022-08-26T18:10:14.064Z,25.50
2022-08-26T18:12:41.694Z,25.40
2022-08-26T18:15:10.724Z,25.40
2022-08-26T18:17:39.273Z,25.30
2022-08-26T18:20:12.296Z,25.20
2022-08-26T18:22:39.679Z,25.20
2022-08-26T18:25:07.879Z,25.20
2022-08-26T18:27:36.114Z,25.10
2022-08-26T18:30:16.293Z,25.10
2022-08-26T18:32:43.814Z,25.10
2022-08-26T18:35:11.354Z,25.10
2022-08-26T18:37:38.299Z,25.10
2022-08-26T18:40:12.184Z,25.00
2022-08-26T18:42:39.226Z,25.00
2022-08-26T18:45:07.753Z,25.00
2022-08-26T18:47:35.026Z,25.00
2022-08-26T18:50:02.848Z,25.00
2022-08-26T18:52:30.608Z,25.00
2022-08-26T18:54:57.419Z,25.00
2022-08-26T18:57:24.258Z,25.00
2022-08-26T18:59:51.163Z,25.00
2022-08-26T19:02:17.957Z,25.00
2022-08-26T19:04:44.852Z,25.00
2022-08-26T19:07:11.916Z,25.00
2022-08-26T19:09:38.724Z,24.90
2022-08-26T19:12:05.868Z,24.90
2022-08-26T19:14:32.843Z,24.90
2022-08-26T19:17:00.463Z,24.90
2022-08-26T19:19:27.582Z,24.90
2022-08-26T19:21:54.784Z,24.90
2022-08-26T19:24:23.124Z,24.90
2022-08-26T19:26:58.085Z,24.80
2022-08-26T19:29:28.267Z,24.80
2022-08-26T19:31:55.924Z,24.80
2022-08-26T19:34:23.119Z,24.80
2022-08-26T19:36:51.830Z,24.80
2022-08-26T19:39:18.990Z,24.80
2022-08-26T19:41:45.911Z,24.80
2022-08-26T19:44:38.830Z,24.80
2022-08-26T19:47:09.992Z,24.70
2022-08-26T19:49:37.474Z,24.70
2022-08-26T19:52:06.026Z,24.70
2022-08-26T19:54:33.538Z,24.70
2022-08-26T19:57:00.499Z,24.70
2022-08-26T19:59:27.502Z,24.70
2022-08-26T20:02:01.169Z,24.70
2022-08-26T20:04:32.239Z,24.70
2022-08-26T20:07:01.012Z,24.60
2022-08-26T20:09:32.629Z,24.60
2022-08-26T20:11:59.599Z,24.60
2022-08-26T20:14:27.345Z,24.60
2022-08-26T20:16:54.435Z,24.60
2022-08-26T20:19:39.804Z,24.50
2022-08-26T20:22:06.960Z,24.50
2022-08-26T20:24:34.298Z,24.50
2022-08-26T20:27:06.805Z,24.50
2022-08-26T20:29:35.498Z,24.50
2022-08-26T20:32:03.693Z,24.40
2022-08-26T20:34:30.600Z,24.40
2022-08-26T20:36:57.542Z,24.40
2022-08-26T20:39:24.431Z,24.30
2022-08-26T20:41:51.411Z,24.30
2022-08-26T20:44:18.309Z,24.30
2022-08-26T20:46:45.583Z,24.30
2022-08-26T20:49:13.286Z,24.30
2022-08-26T20:51:40.892Z,24.30
2022-08-26T20:54:08.167Z,24.20
2022-08-26T20:56:35.850Z,24.20
2022-08-26T20:59:04.920Z,24.20
2022-08-26T21:01:34.767Z,24.20
2022-08-26T21:04:08.677Z,24.20
2022-08-26T21:06:36.270Z,24.20
2022-08-26T21:09:06.136Z,24.20
2022-08-26T21:11:34.218Z,24.20
2022-08-26T21:14:07.135Z,24.10
2022-08-26T21:16:44.402Z,24.10
2022-08-26T21:19:13.862Z,24.10
2022-08-26T21:21:41.259Z,24.10
2022-08-26T21:24:08.901Z,24.10
2022-08-26T21:26:36.036Z,24.10
2022-08-26T21:29:03.683Z,24.00
2022-08-26T21:31:32.060Z,24.10
2022-08-26T21:33:59.837Z,24.00
2022-08-26T21:36:26.936Z,24.00
2022-08-26T21:38:57.155Z,24.00
2022-08-26T21:41:25.799Z,24.00
2022-08-26T21:43:55.725Z,24.00
2022-08-26T21:46:25.060Z,24.00
2022-08-26T21:48:56.927Z,24.00
2022-08-26T21:51:26.539Z,24.00
2022-08-26T21:53:54.573Z,24.00
2022-08-26T21:56:26.282Z,23.90
2022-08-26T21:58:55.035Z,23.90
2022-08-26T22:01:25.642Z,23.90
2022-08-26T22:03:53.274Z,23.90
2022-08-26T22:06:25.504Z,23.90
2022-08-26T22:08:53.846Z,23.80
2022-08-26T22:11:21.059Z,23.80
2022-08-26T22:13:48.895Z,23.70
2022-08-26T22:16:16.681Z,23.70
2022-08-26T22:18:44.910Z,23.70
2022-08-26T22:21:15.543Z,23.70
2022-08-26T22:23:42.407Z,23.70
2022-08-26T22:26:11.514Z,23.70
2022-08-26T22:28:39.335Z,23.70
2022-08-26T22:31:11.818Z,23.70
2022-08-26T22:33:40.203Z,23.70
2022-08-26T22:36:07.098Z,23.70
2022-08-26T22:38:34.441Z,23.70
2022-08-26T22:41:03.436Z,23.70
2022-08-26T22:43:33.756Z,23.70
2022-08-26T22:46:00.646Z,23.70
2022-08-26T22:48:27.555Z,23.70
2022-08-26T22:51:00.202Z,23.60
2022-08-26T22:53:27.585Z,23.60
2022-08-26T22:55:54.544Z,23.60
2022-08-26T22:58:21.773Z,23.60
2022-08-26T23:00:59.475Z,23.60
2022-08-26T23:03:27.086Z,23.60
2022-08-26T23:05:55.384Z,23.60
2022-08-26T23:08:23.627Z,23.60
2022-08-26T23:10:51.594Z,23.50
2022-08-26T23:13:18.947Z,23.50
2022-08-26T23:15:46.343Z,23.50
2022-08-26T23:18:15.009Z,23.50
2022-08-26T23:20:42.436Z,23.50
2022-08-26T23:23:09.506Z,23.50
2022-08-26T23:25:36.301Z,23.50
2022-08-26T23:28:03.478Z,23.50
2022-08-26T23:30:32.498Z,23.50
2022-08-26T23:32:59.499Z,23.50
2022-08-26T23:35:26.988Z,23.50
2022-08-26T23:37:54.131Z,23.50
2022-08-26T23:40:32.299Z,23.50
2022-08-26T23:43:03.256Z,23.50
2022-08-26T23:45:31.739Z,23.40
2022-08-26T23:47:59.156Z,23.40
2022-08-26T23:50:48.606Z,23.40
2022-08-26T23:53:22.473Z,23.40
2022-08-26T23:55:52.372Z,23.30
2022-08-26T23:58:20.998Z,23.30
